createdAt,value
2022-10-28T00:01:28.048Z,80.60
2022-10-28T00:03:58.391Z,80.34
2022-10-28T00:06:30.325Z,80.54
2022-10-28T00:08:59.316Z,80.75
2022-10-28T00:11:30.429Z,80.50
2022-10-28T00:14:02.950Z,80.70
2022-10-28T00:16:33.853Z,80.62
2022-10-28T00:19:03.852Z,80.68
2022-10-28T00:21:36.461Z,80.71
2022-10-28T00:24:05.357Z,80.61
2022-10-28T00:26:36.484Z,80.87
2022-10-28T00:29:07.245Z,81.09
2022-10-28T00:31:37.591Z,81.24
2022-10-28T00:34:10.116Z,81.20
2022-10-28T00:36:41.896Z,81.29
2022-10-28T00:39:15.165Z,81.38
2022-10-28T00:41:49.572Z,80.98
2022-10-28T00:44:51.275Z,81.09
2022-10-28T00:47:56.763Z,81.39
2022-10-28T00:50:32.759Z,81.30
2022-10-28T00:53:07.871Z,81.30
2022-10-28T00:55:36.827Z,81.56
2022-10-28T00:58:06.593Z,81.55
2022-10-28T01:00:34.403Z,81.67
2022-10-28T01:03:02.908Z,81.84
2022-10-28T01:05:35.008Z,81.74
2022-10-28T01:08:04.751Z,82.05
2022-10-28T01:11:07.065Z,82.28
2022-10-28T01:14:05.498Z,82.39
2022-10-28T01:16:46.998Z,82.31
2022-10-28T01:19:17.783Z,81.96
2022-10-28T01:22:26.128Z,81.93
2022-10-28T01:25:11.378Z,81.70
2022-10-28T01:28:07.638Z,81.47
2022-10-28T01:31:00.331Z,81.45
2022-10-28T01:33:36.571Z,81.34
2022-10-28T01:36:14.650Z,81.21
2022-10-28T01:39:01.751Z,81.45
2022-10-28T01:41:58.769Z,81.56
2022-10-28T01:44:52.215Z,81.82
2022-10-28T01:47:43.871Z,82.07
2022-10-28T01:50:21.431Z,82.03
2022-10-28T01:52:52.334Z,82.22
2022-10-28T01:55:29.770Z,82.31
2022-10-28T01:58:00.784Z,82.27
2022-10-28T02:00:32.254Z,82.19
2022-10-28T02:03:00.308Z,81.73
2022-10-28T02:05:46.616Z,81.48
2022-10-28T02:08:26.595Z,81.20
2022-10-28T02:11:00.491Z,81.43
2022-10-28T02:14:03.248Z,81.68
2022-10-28T02:16:37.670Z,82.19
2022-10-28T02:19:47.713Z,82.32
2022-10-28T02:22:18.301Z,82.24
2022-10-28T02:24:55.634Z,82.42
2022-10-28T02:27:47.998Z,82.38
2022-10-28T02:30:21.772Z,82.02
2022-10-28T02:32:54.895Z,82.08
2022-10-28T02:35:31.423Z,82.06
2022-10-28T02:38:03.318Z,82.15
2022-10-28T02:40:34.424Z,82.28
2022-10-28T02:43:06.769Z,82.12
2022-10-28T02:45:44.150Z,82.06
2022-10-28T02:48:20.157Z,82.26
2022-10-28T02:50:55.733Z,82.40
2022-10-28T02:53:32.151Z,82.51
2022-10-28T02:56:01.946Z,82.57
2022-10-28T02:58:37.448Z,82.62
2022-10-28T03:01:05.464Z,82.43
2022-10-28T03:03:33.612Z,82.32
2022-10-28T03:06:01.367Z,82.54
2022-10-28T03:08:29.149Z,82.67
2022-10-28T03:10:56.944Z,83.02
2022-10-28T03:13:24.745Z,82.50
2022-10-28T03:15:52.463Z,81.75
2022-10-28T03:18:20.423Z,81.74
2022-10-28T03:20:48.302Z,82.25
2022-10-28T03:23:15.995Z,82.27
2022-10-28T03:25:44.362Z,82.60
2022-10-28T03:28:12.156Z,82.81
2022-10-28T03:30:39.891Z,83.05
2022-10-28T03:33:07.649Z,83.23
2022-10-28T03:35:35.407Z,83.44
2022-10-28T03:38:03.810Z,83.37
2022-10-28T03:40:31.699Z,83.32
2022-10-28T03:42:59.481Z,83.42
2022-10-28T03:48:00.623Z,83.19
2022-10-28T03:50:28.347Z,83.16
2022-10-28T03:52:56.154Z,83.26
2022-10-28T03:55:25.715Z,83.21
2022-10-28T03:57:54.406Z,83.44
2022-10-28T04:00:22.363Z,83.46
2022-10-28T04:02:51.901Z,83.54
2022-10-28T04:05:20.778Z,83.24
2022-10-28T04:07:48.707Z,83.55
2022-10-28T04:10:16.517Z,83.46
2022-10-28T04:12:44.201Z,83.41
2022-10-28T04:15:11.956Z,83.43
2022-10-28T04:17:39.715Z,83.73
2022-10-28T04:20:08.613Z,83.76
2022-10-28T04:22:36.413Z,83.52
2022-10-28T04:25:04.758Z,83.34
2022-10-28T04:27:32.591Z,83.57
2022-10-28T04:30:00.412Z,83.63
2022-10-28T04:32:28.260Z,83.45
2022-10-28T04:34:56.699Z,83.53
2022-10-28T04:37:24.523Z,83.63
2022-10-28T04:39:52.264Z,83.71
2022-10-28T04:42:20.084Z,83.77
2022-10-28T04:44:47.889Z,84.01
2022-10-28T04:47:16.439Z,83.89
2022-10-28T04:49:44.708Z,83.68
2022-10-28T04:52:14.914Z,83.74
2022-10-28T04:54:43.700Z,84.16
2022-10-28T04:57:11.508Z,84.09
2022-10-28T04:59:39.357Z,84.13
2022-10-28T05:02:07.301Z,84.24
2022-10-28T05:04:35.233Z,84.33
2022-10-28T05:07:02.979Z,84.42
2022-10-28T05:09:30.887Z,84.27
2022-10-28T05:11:58.999Z,84.01
2022-10-28T05:14:26.737Z,83.82
2022-10-28T05:16:54.578Z,84.05
2022-10-28T05:19:22.329Z,84.31
2022-10-28T05:21:50.096Z,84.45
2022-10-28T05:24:17.970Z,84.38
2022-10-28T05:26:45.740Z,84.54
2022-10-28T05:29:13.580Z,84.65
2022-10-28T05:31:41.363Z,84.78
2022-10-28T05:34:09.028Z,84.95
2022-10-28T05:36:36.903Z,85.15
2022-10-28T05:39:05.294Z,85.51
2022-10-28T05:41:37.834Z,85.51
2022-10-28T05:44:06.656Z,85.40
2022-10-28T05:46:34.452Z,85.29
2022-10-28T05:49:02.214Z,85.31
2022-10-28T05:51:29.964Z,85.40
2022-10-28T05:53:57.768Z,85.59
2022-10-28T05:56:25.516Z,85.60
2022-10-28T05:58:53.411Z,85.53
2022-10-28T06:01:21.367Z,86.00
2022-10-28T06:03:49.214Z,86.30
2022-10-28T06:06:16.981Z,86.17
2022-10-28T06:08:45.686Z,86.03
2022-10-28T06:11:12.154Z,86.03
2022-10-28T06:13:40.075Z,85.93
2022-10-28T06:16:08.035Z,85.97
2022-10-28T06:18:35.795Z,86.08
2022-10-28T06:21:04.096Z,85.86
2022-10-28T06:23:31.859Z,85.79
2022-10-28T06:26:01.783Z,85.63
2022-10-28T06:28:30.178Z,85.73
2022-10-28T06:31:03.465Z,85.56
2022-10-28T06:33:31.886Z,85.57
2022-10-28T06:36:00.287Z,85.54
2022-10-28T06:38:28.185Z,85.42
2022-10-28T06:40:57.996Z,85.35
2022-10-28T06:43:25.973Z,85.34
2022-10-28T06:45:55.804Z,85.43
2022-10-28T06:48:25.220Z,85.35
2022-10-28T06:50:56.256Z,85.10
2022-10-28T06:53:25.316Z,85.09
2022-10-28T06:55:57.923Z,85.03
2022-10-28T06:58:26.390Z,84.80
2022-10-28T07:00:56.745Z,84.52
2022-10-28T07:03:23.580Z,84.41
2022-10-28T07:05:51.854Z,84.45
2022-10-28T07:08:20.226Z,84.42
2022-10-28T07:10:59.871Z,84.40
2022-10-28T07:13:27.877Z,83.90
2022-10-28T07:15:59.723Z,83.40
2022-10-28T07:18:29.808Z,82.99
2022-10-28T07:21:01.776Z,82.41
2022-10-28T07:23:34.657Z,82.30
2022-10-28T07:26:02.637Z,82.68
2022-10-28T07:28:31.033Z,82.02
2022-10-28T07:31:02.895Z,81.53
2022-10-28T07:33:31.067Z,81.73
2022-10-28T07:35:58.861Z,81.61
2022-10-28T07:38:26.683Z,80.96
2022-10-28T07:40:54.653Z,80.62
2022-10-28T07:43:22.772Z,80.33
2022-10-28T07:45:57.052Z,80.65
2022-10-28T07:48:24.935Z,79.40
2022-10-28T07:50:52.863Z,79.29
2022-10-28T07:53:22.632Z,78.99
2022-10-28T07:56:05.960Z,78.52
2022-10-28T07:58:33.988Z,78.28
2022-10-28T08:01:06.089Z,77.58
2022-10-28T08:03:38.980Z,76.79
2022-10-28T08:06:17.608Z,76.81
2022-10-28T08:08:47.227Z,76.84
2022-10-28T08:11:19.112Z,76.81
2022-10-28T08:13:47.552Z,76.38
2022-10-28T08:16:15.744Z,75.97
2022-10-28T08:18:47.257Z,76.20
2022-10-28T08:21:15.848Z,76.35
2022-10-28T08:23:46.962Z,75.44
2022-10-28T08:26:16.498Z,75.43
2022-10-28T08:28:44.351Z,75.71
2022-10-28T08:31:15.003Z,75.39
2022-10-28T08:33:45.360Z,75.53
2022-10-28T08:36:17.233Z,76.02
2022-10-28T08:38:47.622Z,76.29
2022-10-28T08:41:57.531Z,76.21
2022-10-28T08:44:41.241Z,76.27
2022-10-28T08:47:21.244Z,75.90
2022-10-28T08:49:52.610Z,75.78
2022-10-28T08:52:49.551Z,75.61
2022-10-28T08:55:27.219Z,75.63
2022-10-28T08:58:06.312Z,75.84
2022-10-28T09:00:35.030Z,75.34
2022-10-28T09:03:11.996Z,74.93
2022-10-28T09:05:42.663Z,74.58
2022-10-28T09:08:39.477Z,74.64
2022-10-28T09:11:14.740Z,75.21
2022-10-28T09:14:01.016Z,75.05
2022-10-28T09:16:36.398Z,74.81
2022-10-28T09:19:14.885Z,74.54
2022-10-28T09:21:58.086Z,74.81
2022-10-28T09:24:48.920Z,74.60
2022-10-28T09:27:41.228Z,74.87
2022-10-28T09:30:21.453Z,74.38
2022-10-28T09:33:02.523Z,74.01
2022-10-28T09:35:35.212Z,74.10
2022-10-28T09:38:20.954Z,73.82
2022-10-28T09:40:54.952Z,73.60
2022-10-28T09:43:30.183Z,73.65
2022-10-28T09:46:12.171Z,73.47
2022-10-28T09:49:03.282Z,73.54
2022-10-28T09:51:47.826Z,73.22
2022-10-28T09:54:15.680Z,73.07
2022-10-28T09:56:43.547Z,72.97
2022-10-28T09:59:15.547Z,72.76
2022-10-28T10:01:46.691Z,72.85
2022-10-28T10:04:21.443Z,72.73
2022-10-28T10:07:05.693Z,72.45
2022-10-28T10:09:35.138Z,72.19
2022-10-28T10:12:08.583Z,71.60
2022-10-28T10:14:50.061Z,71.35
2022-10-28T10:17:37.551Z,71.42
2022-10-28T10:20:09.326Z,71.15
2022-10-28T10:22:40.473Z,70.82
2022-10-28T10:25:17.494Z,70.72
2022-10-28T10:28:06.660Z,70.59
2022-10-28T10:30:45.599Z,70.55
2022-10-28T10:33:22.746Z,70.14
2022-10-28T10:36:00.924Z,69.72
2022-10-28T10:38:30.746Z,69.89
2022-10-28T10:40:58.699Z,70.01
2022-10-28T10:43:34.022Z,70.06
2022-10-28T10:46:05.384Z,70.17
2022-10-28T10:48:36.525Z,70.25
2022-10-28T10:51:09.047Z,69.98
2022-10-28T10:53:39.882Z,69.87
2022-10-28T10:56:10.904Z,69.99
2022-10-28T10:58:47.210Z,70.00
2022-10-28T11:01:21.826Z,69.94
2022-10-28T11:04:16.580Z,69.89
2022-10-28T11:06:52.824Z,69.66
2022-10-28T11:09:34.441Z,69.46
2022-10-28T11:12:25.992Z,68.99
2022-10-28T11:15:16.066Z,68.62
2022-10-28T11:17:56.234Z,68.46
2022-10-28T11:20:29.874Z,67.95
2022-10-28T11:23:35.172Z,68.25
2022-10-28T11:26:07.574Z,67.80
2022-10-28T11:28:38.435Z,67.04
2022-10-28T11:31:30.033Z,67.30
2022-10-28T11:34:16.987Z,66.70
2022-10-28T11:36:54.471Z,66.67
2022-10-28T11:39:55.751Z,66.76
2022-10-28T11:42:46.144Z,66.66
2022-10-28T11:45:28.069Z,65.95
2022-10-28T11:48:33.156Z,66.07
2022-10-28T11:51:20.041Z,66.27
2022-10-28T11:53:57.202Z,66.15
2022-10-28T11:56:39.801Z,66.08
2022-10-28T11:59:36.744Z,66.32
2022-10-28T12:02:15.304Z,66.15
2022-10-28T12:04:52.334Z,65.83
2022-10-28T12:07:36.507Z,65.60
2022-10-28T12:10:29.343Z,65.44
2022-10-28T12:13:14.713Z,65.11
2022-10-28T12:16:02.740Z,65.45
2022-10-28T12:18:36.595Z,65.57
2022-10-28T12:21:07.515Z,65.28
2022-10-28T12:23:39.130Z,65.25
2022-10-28T12:26:10.713Z,65.14
2022-10-28T12:28:58.003Z,64.75
2022-10-28T12:31:32.483Z,65.49
2022-10-28T12:34:05.312Z,65.06
2022-10-28T12:36:41.837Z,65.03
2022-10-28T12:39:18.679Z,64.92
2022-10-28T12:41:56.235Z,65.10
2022-10-28T12:44:26.367Z,65.41
2022-10-28T12:47:05.392Z,65.21
2022-10-28T12:49:40.535Z,65.20
2022-10-28T12:52:28.888Z,65.06
2022-10-28T12:55:19.912Z,64.57
2022-10-28T12:57:54.109Z,64.35
2022-10-28T13:00:26.807Z,64.36
2022-10-28T13:03:01.542Z,64.42
2022-10-28T13:05:42.652Z,64.75
2022-10-28T13:08:30.473Z,64.81
2022-10-28T13:11:21.039Z,65.16
2022-10-28T13:13:57.863Z,64.87
2022-10-28T13:16:34.471Z,64.93
2022-10-28T13:19:14.921Z,65.08
2022-10-28T13:22:09.499Z,65.44
2022-10-28T13:24:37.291Z,66.17
2022-10-28T13:27:05.920Z,66.08
2022-10-28T13:29:35.140Z,65.80
2022-10-28T13:32:03.187Z,65.93
2022-10-28T13:34:36.166Z,65.81
2022-10-28T13:37:07.702Z,65.74
2022-10-28T13:39:46.692Z,65.72
2022-10-28T13:42:19.632Z,65.88
2022-10-28T13:44:50.009Z,66.25
2022-10-28T13:47:17.725Z,66.35
2022-10-28T13:50:07.849Z,66.14
2022-10-28T13:52:38.813Z,66.40
2022-10-28T13:55:27.184Z,66.09
2022-10-28T13:58:04.253Z,66.20
2022-10-28T14:00:31.979Z,66.30
2022-10-28T14:03:06.494Z,66.25
2022-10-28T14:05:37.606Z,66.58
2022-10-28T14:08:08.793Z,66.57
2022-10-28T14:10:39.606Z,66.96
2022-10-28T14:13:18.688Z,66.98
2022-10-28T14:15:50.486Z,67.05
2022-10-28T14:21:12.032Z,67.59
2022-10-28T14:23:39.876Z,67.60
2022-10-28T14:26:07.719Z,67.33
2022-10-28T14:28:35.518Z,67.55
2022-10-28T14:31:12.427Z,67.54
2022-10-28T14:33:55.594Z,67.89
2022-10-28T14:36:42.522Z,68.04
2022-10-28T14:39:29.028Z,68.16
2022-10-28T14:42:05.148Z,68.38
2022-10-28T14:44:39.003Z,68.72
2022-10-28T14:47:25.656Z,68.98
2022-10-28T14:50:03.547Z,69.02
2022-10-28T14:52:36.829Z,69.30
2022-10-28T14:55:20.107Z,69.49
2022-10-28T14:57:47.960Z,69.58
2022-10-28T15:00:29.479Z,69.96
2022-10-28T15:02:57.324Z,70.02
2022-10-28T15:05:32.331Z,70.08
2022-10-28T15:08:03.032Z,70.31
2022-10-28T15:10:38.344Z,70.15
2022-10-28T15:13:16.026Z,70.45
2022-10-28T15:15:58.235Z,70.46
2022-10-28T15:18:28.531Z,70.47
2022-10-28T15:21:16.138Z,70.41
2022-10-28T15:23:47.215Z,70.39
2022-10-28T15:26:16.643Z,70.48
2022-10-28T15:28:44.609Z,70.46
2022-10-28T15:31:12.356Z,70.42
2022-10-28T15:33:42.063Z,70.71
2022-10-28T15:36:22.202Z,70.82
2022-10-28T15:38:52.964Z,70.76
2022-10-28T15:41:23.931Z,70.82
2022-10-28T15:44:05.023Z,71.10
2022-10-28T15:46:33.874Z,71.06
2022-10-28T15:49:02.835Z,71.03
2022-10-28T15:51:30.589Z,70.90
2022-10-28T15:54:12.067Z,70.99
2022-10-28T15:56:59.004Z,71.04
2022-10-28T15:59:26.991Z,71.10
2022-10-28T16:01:56.284Z,71.17
2022-10-28T16:04:24.310Z,71.25
2022-10-28T16:06:57.408Z,71.25
2022-10-28T16:09:34.527Z,71.36
2022-10-28T16:12:11.886Z,71.50
2022-10-28T16:14:41.794Z,71.62
2022-10-28T16:17:19.138Z,71.83
2022-10-28T16:19:51.075Z,71.98
2022-10-28T16:22:19.802Z,72.15
2022-10-28T16:24:48.836Z,72.62
2022-10-28T16:27:17.960Z,72.68
2022-10-28T16:29:46.271Z,72.58
2022-10-28T16:32:16.204Z,72.51
2022-10-28T16:34:44.206Z,72.71
2022-10-28T16:37:22.662Z,72.99
2022-10-28T16:39:51.476Z,73.26
2022-10-28T16:42:21.257Z,73.37
2022-10-28T16:44:49.258Z,73.71
2022-10-28T16:47:22.108Z,73.90
2022-10-28T16:49:54.193Z,74.24
2022-10-28T16:52:28.747Z,74.21
2022-10-28T16:54:57.491Z,74.42
2022-10-28T16:57:26.351Z,74.81
2022-10-28T16:59:54.922Z,75.27
2022-10-28T17:02:33.163Z,75.09
2022-10-28T17:05:05.155Z,75.28
2022-10-28T17:07:32.957Z,75.44
2022-10-28T17:10:00.831Z,75.23
2022-10-28T17:12:28.896Z,75.65
2022-10-28T17:14:56.754Z,75.69
2022-10-28T17:17:24.558Z,75.67
2022-10-28T17:19:52.410Z,76.14
2022-10-28T17:22:20.160Z,76.02
2022-10-28T17:24:47.983Z,75.99
2022-10-28T17:27:16.002Z,75.93
2022-10-28T17:29:43.917Z,75.86
2022-10-28T17:32:12.464Z,75.83
2022-10-28T17:34:40.525Z,75.77
2022-10-28T17:37:10.477Z,75.72
2022-10-28T17:39:38.637Z,75.61
2022-10-28T17:42:06.498Z,75.85
2022-10-28T17:44:34.513Z,76.09
2022-10-28T17:47:02.953Z,76.12
2022-10-28T17:49:32.714Z,76.38
2022-10-28T17:52:00.654Z,76.72
2022-10-28T17:54:28.945Z,76.70
2022-10-28T17:56:56.834Z,76.73
2022-10-28T17:59:24.789Z,76.61
2022-10-28T18:01:52.779Z,76.61
2022-10-28T18:04:26.173Z,76.55
2022-10-28T18:06:56.136Z,76.94
2022-10-28T18:09:24.450Z,77.00
2022-10-28T18:11:52.335Z,77.26
2022-10-28T18:14:20.330Z,77.40
2022-10-28T18:16:50.335Z,77.39
2022-10-28T18:19:18.360Z,77.11
2022-10-28T18:21:46.540Z,76.89
2022-10-28T18:24:14.904Z,77.02
2022-10-28T18:26:42.864Z,76.94
2022-10-28T18:29:13.081Z,76.90
2022-10-28T18:31:42.339Z,76.97
2022-10-28T18:34:10.403Z,76.70
2022-10-28T18:36:38.310Z,77.52
2022-10-28T18:39:07.465Z,77.66
2022-10-28T18:41:40.319Z,77.26
2022-10-28T18:44:11.983Z,77.57
2022-10-28T18:46:40.445Z,77.25
2022-10-28T18:49:08.364Z,77.22
2022-10-28T18:51:36.666Z,77.14
2022-10-28T18:54:04.663Z,76.97
2022-10-28T18:56:34.265Z,76.82
2022-10-28T18:59:04.618Z,76.65
2022-10-28T19:01:32.888Z,76.52
2022-10-28T19:04:03.212Z,76.55
2022-10-28T19:06:34.262Z,76.53
2022-10-28T19:09:04.627Z,77.07
2022-10-28T19:11:33.787Z,77.63
2022-10-28T19:14:05.099Z,77.89
2022-10-28T19:16:35.553Z,78.04
2022-10-28T19:19:05.327Z,78.12
2022-10-28T19:21:33.810Z,78.28
2022-10-28T19:24:01.938Z,78.33
2022-10-28T19:26:32.068Z,78.55
2022-10-28T19:29:00.443Z,78.62
2022-10-28T19:31:28.535Z,78.61
2022-10-28T19:33:56.719Z,78.43
2022-10-28T19:36:29.945Z,78.60
2022-10-28T19:38:58.137Z,78.67
2022-10-28T19:41:28.562Z,78.53
2022-10-28T19:43:59.063Z,78.46
2022-10-28T19:46:29.350Z,78.49
2022-10-28T19:48:59.618Z,78.18
2022-10-28T19:51:46.746Z,78.30
2022-10-28T19:54:15.819Z,78.44
2022-10-28T19:56:45.172Z,78.65
2022-10-28T19:59:13.152Z,78.71
2022-10-28T20:01:41.734Z,79.11
2022-10-28T20:04:10.296Z,79.05
2022-10-28T20:06:40.519Z,79.26
2022-10-28T20:09:08.659Z,79.41
2022-10-28T20:11:38.401Z,79.57
2022-10-28T20:14:09.904Z,79.86
2022-10-28T20:16:40.115Z,79.98
2022-10-28T20:19:08.465Z,80.03
2022-10-28T20:21:37.387Z,80.24
2022-10-28T20:24:06.892Z,80.14
2022-10-28T20:26:36.902Z,80.24
2022-10-28T20:29:06.870Z,80.36
2022-10-28T20:31:34.895Z,80.13
2022-10-28T20:34:04.131Z,80.06
2022-10-28T20:36:36.197Z,80.10
2022-10-28T20:39:08.834Z,80.44
2022-10-28T20:41:38.814Z,80.71
2022-10-28T20:44:07.682Z,80.81
2022-10-28T20:46:36.617Z,81.05
2022-10-28T20:49:05.219Z,80.93
2022-10-28T20:51:33.603Z,81.04
2022-10-28T20:54:02.087Z,81.29
2022-10-28T20:56:33.331Z,81.28
2022-10-28T20:59:01.332Z,81.37
2022-10-28T21:01:31.561Z,81.70
2022-10-28T21:04:03.047Z,81.63
2022-10-28T21:06:31.925Z,81.52
2022-10-28T21:08:59.771Z,81.33
2022-10-28T21:11:28.764Z,81.08
2022-10-28T21:13:59.351Z,80.98
2022-10-28T21:16:28.094Z,80.91
2022-10-28T21:18:56.339Z,81.15
2022-10-28T21:21:25.011Z,81.30
2022-10-28T21:23:54.832Z,81.34
2022-10-28T21:26:22.631Z,81.33
2022-10-28T21:28:52.119Z,81.09
2022-10-28T21:31:21.246Z,80.85
2022-10-28T21:36:23.048Z,80.62
2022-10-28T21:38:55.789Z,80.50
2022-10-28T21:41:24.997Z,80.31
2022-10-28T21:43:54.047Z,80.01
2022-10-28T21:46:23.040Z,79.88
2022-10-28T21:48:52.139Z,79.65
2022-10-28T21:51:19.961Z,79.35
2022-10-28T21:53:47.745Z,79.47
2022-10-28T21:56:19.157Z,79.60
2022-10-28T21:58:48.995Z,79.74
2022-10-28T22:01:22.600Z,79.70
2022-10-28T22:03:52.052Z,79.80
2022-10-28T22:06:20.188Z,79.87
2022-10-28T22:08:48.199Z,79.70
2022-10-28T22:11:20.815Z,79.73
2022-10-28T22:13:56.353Z,79.94
2022-10-28T22:16:25.134Z,79.77
2022-10-28T22:18:53.094Z,79.64
2022-10-28T22:21:23.397Z,79.36
2022-10-28T22:23:51.808Z,79.21
2022-10-28T22:26:22.282Z,79.56
2022-10-28T22:28:50.860Z,79.75
2022-10-28T22:31:21.944Z,79.62
2022-10-28T22:33:50.491Z,79.75
2022-10-28T22:36:24.490Z,79.80
2022-10-28T22:38:52.430Z,79.57
2022-10-28T22:41:22.751Z,79.38
2022-10-28T22:43:52.646Z,79.29
2022-10-28T22:46:21.904Z,79.61
2022-10-28T22:48:49.918Z,79.41
2022-10-28T22:51:18.980Z,79.57
2022-10-28T22:53:47.614Z,79.98
2022-10-28T22:56:20.219Z,79.77
2022-10-28T22:58:57.400Z,79.74
2022-10-28T23:01:27.002Z,80.03
2022-10-28T23:03:55.484Z,79.93
2022-10-28T23:06:26.208Z,79.86
2022-10-28T23:08:54.624Z,79.74
2022-10-28T23:11:23.047Z,80.14
2022-10-28T23:13:52.892Z,80.35
2022-10-28T23:16:21.635Z,80.41
2022-10-28T23:18:49.659Z,80.34
2022-10-28T23:21:25.859Z,80.65
2022-10-28T23:23:58.970Z,80.96
2022-10-28T23:26:28.718Z,81.48
2022-10-28T23:28:59.434Z,81.42
2022-10-28T23:31:27.799Z,81.41
2022-10-28T23:33:56.178Z,81.29
2022-10-28T23:36:24.163Z,81.15
2022-10-28T23:38:52.567Z,81.11
2022-10-28T23:41:21.158Z,80.98
2022-10-28T23:43:49.621Z,80.79
2022-10-28T23:46:18.249Z,80.67
2022-10-28T23:48:46.006Z,80.53
2022-10-28T23:51:14.422Z,80.56
2022-10-28T23:53:42.410Z,80.62
2022-10-28T23:56:10.309Z,80.59
2022-10-28T23:58:38.068Z,80.28
